createdAt,value
2023-02-02T00:00:29.229Z,4.97
2023-02-02T00:03:14.413Z,4.78
2023-02-02T00:05:59.454Z,4.63
2023-02-02T00:08:44.418Z,4.97
2023-02-02T00:11:29.805Z,4.56
2023-02-02T00:14:15.116Z,4.32
2023-02-02T00:17:00.437Z,4.22
2023-02-02T00:19:45.664Z,4.19
2023-02-02T00:22:30.632Z,4.06
2023-02-02T00:25:15.535Z,4.11
2023-02-02T00:28:07.578Z,3.94
2023-02-02T00:30:59.785Z,3.94
2023-02-02T00:33:52.049Z,4.26
2023-02-02T00:36:44.579Z,4.18
2023-02-02T00:39:36.899Z,4.65
2023-02-02T00:42:29.062Z,4.47
2023-02-02T00:45:20.527Z,4.46
2023-02-02T00:48:12.584Z,4.69
2023-02-02T00:51:05.111Z,4.63
2023-02-02T00:53:56.625Z,4.50
2023-02-02T00:56:49.122Z,4.58
2023-02-02T00:59:44.352Z,4.42
2023-02-02T01:02:36.216Z,4.28
2023-02-02T01:05:27.791Z,4.38
2023-02-02T01:08:19.959Z,4.33
2023-02-02T01:11:11.834Z,4.29
2023-02-02T01:14:03.967Z,4.47
2023-02-02T01:16:55.931Z,4.41
2023-02-02T01:19:47.555Z,4.60
2023-02-02T01:22:39.796Z,4.47
2023-02-02T01:25:31.823Z,4.55
2023-02-02T01:28:24.585Z,4.51
2023-02-02T01:31:18.422Z,4.55
2023-02-02T01:34:10.669Z,4.39
2023-02-02T01:37:02.283Z,4.21
2023-02-02T01:39:53.738Z,4.37
2023-02-02T01:42:45.407Z,4.28
2023-02-02T01:45:37.711Z,4.28
2023-02-02T01:48:32.558Z,4.32
2023-02-02T01:51:31.736Z,4.07
2023-02-02T01:54:35.020Z,4.17
2023-02-02T01:57:33.327Z,4.17
2023-02-02T02:00:28.480Z,4.20
2023-02-02T02:03:32.215Z,4.01
2023-02-02T02:06:24.256Z,3.94
2023-02-02T02:09:15.444Z,4.09
2023-02-02T02:12:15.801Z,4.12
2023-02-02T02:14:46.271Z,4.22
2023-02-02T02:17:25.780Z,4.15
2023-02-02T02:20:21.185Z,4.44
2023-02-02T02:23:12.308Z,4.42
2023-02-02T02:26:17.066Z,4.11
2023-02-02T02:28:49.973Z,4.41
2023-02-02T02:31:40.953Z,4.25
2023-02-02T02:34:20.347Z,4.20
2023-02-02T02:37:00.937Z,4.41
2023-02-02T02:39:34.984Z,4.67
2023-02-02T02:42:13.212Z,4.56
2023-02-02T02:44:41.898Z,4.33
2023-02-02T02:47:10.312Z,4.23
2023-02-02T02:49:45.349Z,4.35
2023-02-02T02:52:13.094Z,4.25
2023-02-02T02:54:46.609Z,4.39
2023-02-02T02:57:35.938Z,4.38
2023-02-02T03:00:30.787Z,4.44
2023-02-02T03:03:19.945Z,4.41
2023-02-02T03:06:04.907Z,4.26
2023-02-02T03:08:37.625Z,4.61
2023-02-02T03:11:07.480Z,4.48
2023-02-02T03:13:35.210Z,4.29
2023-02-02T03:16:02.577Z,4.17
2023-02-02T03:18:31.560Z,4.44
2023-02-02T03:20:59.256Z,4.41
2023-02-02T03:23:27.113Z,4.31
2023-02-02T03:25:55.053Z,4.19
2023-02-02T03:28:25.102Z,4.42
2023-02-02T03:30:54.673Z,4.44
2023-02-02T03:33:22.583Z,4.41
2023-02-02T03:35:50.149Z,4.39
2023-02-02T03:38:17.651Z,4.44
2023-02-02T03:40:44.900Z,4.36
2023-02-02T03:43:12.130Z,4.26
2023-02-02T03:45:41.860Z,4.16
2023-02-02T03:48:09.292Z,4.28
2023-02-02T03:50:40.370Z,7.45
2023-02-02T03:53:10.990Z,9.71
2023-02-02T03:55:38.303Z,8.94
2023-02-02T03:58:05.521Z,9.78
2023-02-02T04:00:32.958Z,8.59
2023-02-02T04:03:01.038Z,9.61
2023-02-02T04:05:28.293Z,9.56
2023-02-02T04:07:55.540Z,8.88
2023-02-02T04:10:23.215Z,8.50
2023-02-02T04:12:50.467Z,6.79
2023-02-02T04:15:17.728Z,5.74
2023-02-02T04:17:45.004Z,5.80
2023-02-02T04:20:12.207Z,5.17
2023-02-02T04:22:39.465Z,4.61
2023-02-02T04:25:07.132Z,4.44
2023-02-02T04:27:35.134Z,4.44
2023-02-02T04:30:02.499Z,4.61
2023-02-02T04:32:29.986Z,4.60
2023-02-02T04:34:57.519Z,4.51
2023-02-02T04:37:24.710Z,4.25
2023-02-02T04:39:52.039Z,4.38
2023-02-02T04:42:19.277Z,4.38
2023-02-02T04:44:47.320Z,4.51
2023-02-02T04:47:15.107Z,4.50
2023-02-02T04:49:42.807Z,4.48
2023-02-02T04:52:11.765Z,4.41
2023-02-02T04:54:39.725Z,4.43
2023-02-02T04:57:07.411Z,4.31
2023-02-02T04:59:35.265Z,4.40
2023-02-02T05:02:03.664Z,4.15
2023-02-02T05:04:31.800Z,4.26
2023-02-02T05:07:00.028Z,4.17
2023-02-02T05:09:27.798Z,3.98
2023-02-02T05:11:55.043Z,3.93
2023-02-02T05:14:22.520Z,4.03
2023-02-02T05:16:49.784Z,4.03
2023-02-02T05:19:17.081Z,3.80
2023-02-02T05:21:45.012Z,3.81
2023-02-02T05:24:12.571Z,3.73
2023-02-02T05:26:40.396Z,3.75
2023-02-02T05:29:07.799Z,3.71
2023-02-02T05:31:35.389Z,4.03
2023-02-02T05:34:03.044Z,3.98
2023-02-02T05:36:30.319Z,3.88
2023-02-02T05:38:57.582Z,3.86
2023-02-02T05:41:24.860Z,4.00
2023-02-02T05:43:52.044Z,4.01
2023-02-02T05:46:19.521Z,4.05
2023-02-02T05:48:46.816Z,4.15
2023-02-02T05:51:33.965Z,4.03
2023-02-02T05:54:01.639Z,4.25
2023-02-02T05:56:29.515Z,4.06
2023-02-02T05:58:56.752Z,3.86
2023-02-02T06:01:23.980Z,4.04
2023-02-02T06:03:52.112Z,4.05
2023-02-02T06:06:19.780Z,4.11
2023-02-02T06:08:47.664Z,3.92
2023-02-02T06:11:18.200Z,3.99
2023-02-02T06:13:46.348Z,4.21
2023-02-02T06:16:23.160Z,4.26
2023-02-02T06:18:51.233Z,4.45
2023-02-02T06:21:18.815Z,4.41
2023-02-02T06:23:47.185Z,5.38
2023-02-02T06:26:16.269Z,6.48
2023-02-02T06:28:53.405Z,6.32
2023-02-02T06:31:24.383Z,5.58
2023-02-02T06:33:57.564Z,5.60
2023-02-02T06:36:27.881Z,5.53
2023-02-02T06:38:57.455Z,5.42
2023-02-02T06:41:25.373Z,5.57
2023-02-02T06:43:53.493Z,5.63
2023-02-02T06:46:23.237Z,5.92
2023-02-02T06:49:01.248Z,5.54
2023-02-02T06:51:29.343Z,5.31
2023-02-02T06:53:59.238Z,5.98
2023-02-02T06:56:29.933Z,7.16
2023-02-02T06:58:59.718Z,7.80
2023-02-02T07:01:27.114Z,8.69
2023-02-02T07:03:54.849Z,9.12
2023-02-02T07:06:25.160Z,9.55
2023-02-02T07:09:02.970Z,8.63
2023-02-02T07:11:34.753Z,7.16
2023-02-02T07:14:05.159Z,7.60
2023-02-02T07:16:32.429Z,6.81
2023-02-02T07:18:59.692Z,6.37
2023-02-02T07:21:27.650Z,6.28
2023-02-02T07:23:54.908Z,6.26
2023-02-02T07:26:22.177Z,5.87
2023-02-02T07:28:51.977Z,5.83
2023-02-02T07:31:25.496Z,5.90
2023-02-02T07:33:54.159Z,6.07
2023-02-02T07:36:23.236Z,6.01
2023-02-02T07:38:53.987Z,5.94
2023-02-02T07:41:22.086Z,6.11
2023-02-02T07:43:50.541Z,7.20
2023-02-02T07:46:18.592Z,7.76
2023-02-02T07:48:46.122Z,7.41
2023-02-02T07:51:17.813Z,8.11
2023-02-02T07:53:50.700Z,8.02
2023-02-02T07:56:25.629Z,8.16
2023-02-02T07:58:57.259Z,8.00
2023-02-02T08:01:28.761Z,7.60
2023-02-02T08:03:57.111Z,7.89
2023-02-02T08:06:32.840Z,7.72
2023-02-02T08:09:01.414Z,7.38
2023-02-02T08:11:28.921Z,7.61
2023-02-02T08:13:59.920Z,7.33
2023-02-02T08:16:29.129Z,7.11
2023-02-02T08:18:56.612Z,6.90
2023-02-02T08:21:24.308Z,6.81
2023-02-02T08:23:53.089Z,6.97
2023-02-02T08:26:26.261Z,6.73
2023-02-02T08:28:56.832Z,6.74
2023-02-02T08:31:27.967Z,6.77
2023-02-02T08:33:55.793Z,6.76
2023-02-02T08:36:27.445Z,6.77
2023-02-02T08:38:54.879Z,6.54
2023-02-02T08:41:24.199Z,6.43
2023-02-02T08:43:51.803Z,6.60
2023-02-02T08:46:21.388Z,6.61
2023-02-02T08:48:49.303Z,6.72
2023-02-02T08:51:18.663Z,6.58
2023-02-02T08:53:46.601Z,6.63
2023-02-02T08:56:19.042Z,6.88
2023-02-02T08:58:52.384Z,7.05
2023-02-02T09:01:20.821Z,7.05
2023-02-02T09:03:52.779Z,7.26
2023-02-02T09:06:21.313Z,7.52
2023-02-02T09:08:48.687Z,7.46
2023-02-02T09:11:18.627Z,7.38
2023-02-02T09:13:48.255Z,7.48
2023-02-02T09:16:18.650Z,7.61
2023-02-02T09:18:46.341Z,7.30
2023-02-02T09:21:15.996Z,7.41
2023-02-02T09:23:45.082Z,7.64
2023-02-02T09:26:27.417Z,7.66
2023-02-02T09:29:03.457Z,7.57
2023-02-02T09:31:34.496Z,7.53
2023-02-02T09:34:03.222Z,7.72
2023-02-02T09:36:31.539Z,7.73
2023-02-02T09:38:59.150Z,7.65
2023-02-02T09:41:41.950Z,7.68
2023-02-02T09:44:21.344Z,8.36
2023-02-02T09:47:12.971Z,7.97
2023-02-02T09:49:40.307Z,7.46
2023-02-02T09:52:14.396Z,7.62
2023-02-02T09:54:59.758Z,7.65
2023-02-02T09:57:40.380Z,7.51
2023-02-02T10:00:27.396Z,7.22
2023-02-02T10:03:13.631Z,7.18
2023-02-02T10:05:50.273Z,7.45
2023-02-02T10:08:50.342Z,7.37
2023-02-02T10:11:44.319Z,7.15
2023-02-02T10:14:27.734Z,7.20
2023-02-02T10:17:00.450Z,9.75
2023-02-02T10:19:27.727Z,8.10
2023-02-02T10:22:05.292Z,7.23
2023-02-02T10:24:33.317Z,7.20
2023-02-02T10:27:04.776Z,7.20
2023-02-02T10:29:56.615Z,6.94
2023-02-02T10:32:27.310Z,6.67
2023-02-02T10:35:14.655Z,6.77
2023-02-02T10:37:51.463Z,6.61
2023-02-02T10:40:40.037Z,6.53
2023-02-02T10:43:16.197Z,6.45
2023-02-02T10:45:45.698Z,6.80
2023-02-02T10:48:16.692Z,10.08
2023-02-02T10:50:49.517Z,10.95
2023-02-02T10:53:17.234Z,11.20
2023-02-02T10:55:53.558Z,11.52
2023-02-02T10:58:32.365Z,10.95
2023-02-02T11:00:59.809Z,11.22
2023-02-02T11:03:33.112Z,10.58
2023-02-02T11:06:03.237Z,9.02
2023-02-02T11:08:56.749Z,7.31
2023-02-02T11:11:32.816Z,9.60
2023-02-02T11:14:28.227Z,10.80
2023-02-02T11:17:03.100Z,7.94
2023-02-02T11:19:32.598Z,7.42
2023-02-02T11:22:03.097Z,7.04
2023-02-02T11:24:45.705Z,7.17
2023-02-02T11:27:39.507Z,7.06
2023-02-02T11:30:35.811Z,6.57
2023-02-02T11:33:28.015Z,6.69
2023-02-02T11:35:58.810Z,6.67
2023-02-02T11:38:26.943Z,6.71
2023-02-02T11:40:58.505Z,6.36
2023-02-02T11:43:36.054Z,6.10
2023-02-02T11:46:18.244Z,6.57
2023-02-02T11:49:02.192Z,6.25
2023-02-02T11:51:31.050Z,6.35
2023-02-02T11:54:15.624Z,6.52
2023-02-02T11:56:49.626Z,6.46
2023-02-02T11:59:37.526Z,6.13
2023-02-02T12:02:10.798Z,6.04
2023-02-02T12:04:40.831Z,6.33
2023-02-02T12:07:32.525Z,6.30
2023-02-02T12:10:04.575Z,6.03
2023-02-02T12:12:44.049Z,6.02
2023-02-02T12:16:09.046Z,6.38
2023-02-02T12:18:44.111Z,6.19
2023-02-02T12:21:14.408Z,6.03
2023-02-02T12:24:04.234Z,6.22
2023-02-02T12:26:36.186Z,6.39
2023-02-02T12:29:15.818Z,6.32
2023-02-02T12:31:59.596Z,6.20
2023-02-02T12:34:42.220Z,8.25
2023-02-02T12:37:12.380Z,9.72
2023-02-02T12:39:47.590Z,7.37
2023-02-02T12:42:36.451Z,6.79
2023-02-02T12:45:23.066Z,7.38
2023-02-02T12:48:23.573Z,7.45
2023-02-02T12:51:09.281Z,7.25
2023-02-02T12:53:39.319Z,7.30
2023-02-02T12:56:20.853Z,7.52
2023-02-02T12:59:07.101Z,7.29
2023-02-02T13:02:26.574Z,7.25
2023-02-02T13:04:56.771Z,7.51
2023-02-02T13:07:44.219Z,7.39
2023-02-02T13:10:26.818Z,7.40
2023-02-02T13:13:16.846Z,7.15
2023-02-02T13:15:49.559Z,7.51
2023-02-02T13:18:26.471Z,7.45
2023-02-02T13:21:00.724Z,7.19
2023-02-02T13:23:33.708Z,7.36
2023-02-02T13:26:10.224Z,7.70
2023-02-02T13:28:47.117Z,7.45
2023-02-02T13:31:36.229Z,7.16
2023-02-02T13:34:40.908Z,7.44
2023-02-02T13:37:39.662Z,7.31
2023-02-02T13:40:30.816Z,7.18
2023-02-02T13:43:29.060Z,7.04
2023-02-02T13:46:06.035Z,7.38
2023-02-02T13:48:56.778Z,7.25
2023-02-02T13:51:49.806Z,7.01
2023-02-02T13:54:29.200Z,7.14
2023-02-02T13:57:36.071Z,7.35
2023-02-02T14:00:12.232Z,6.91
2023-02-02T14:02:51.920Z,6.90
2023-02-02T14:05:32.664Z,7.25
2023-02-02T14:08:21.935Z,7.20
2023-02-02T14:10:55.688Z,7.20
2023-02-02T14:13:32.243Z,7.14
2023-02-02T14:16:03.939Z,7.34
2023-02-02T14:18:50.224Z,7.02
2023-02-02T14:21:32.571Z,7.15
2023-02-02T14:24:24.140Z,7.01
2023-02-02T14:27:10.041Z,7.10
2023-02-02T14:29:58.721Z,6.96
2023-02-02T14:32:25.928Z,6.84
2023-02-02T14:35:20.001Z,7.09
2023-02-02T14:37:56.408Z,7.29
2023-02-02T14:41:01.080Z,7.18
2023-02-02T14:43:39.668Z,7.16
2023-02-02T14:46:22.606Z,7.46
2023-02-02T14:48:58.837Z,7.15
2023-02-02T14:51:28.832Z,6.80
2023-02-02T14:54:07.258Z,6.79
2023-02-02T14:56:48.190Z,7.24
2023-02-02T14:59:32.871Z,6.76
2023-02-02T15:02:23.398Z,6.44
2023-02-02T15:04:50.743Z,6.62
2023-02-02T15:07:24.149Z,6.71
2023-02-02T15:09:52.749Z,6.61
2023-02-02T15:12:44.871Z,6.47
2023-02-02T15:15:25.519Z,6.66
2023-02-02T15:18:05.616Z,6.34
2023-02-02T15:20:40.629Z,6.40
2023-02-02T15:23:16.792Z,6.35
2023-02-02T15:25:56.902Z,6.65
2023-02-02T15:28:33.200Z,6.27
2023-02-02T15:31:29.777Z,6.22
2023-02-02T15:34:01.222Z,6.05
2023-02-02T15:36:32.376Z,6.22
2023-02-02T15:39:08.427Z,5.94
2023-02-02T15:41:42.530Z,5.86
2023-02-02T15:44:27.920Z,5.79
2023-02-02T15:46:56.358Z,6.07
2023-02-02T15:49:35.411Z,5.74
2023-02-02T15:52:26.221Z,5.68
2023-02-02T15:54:59.044Z,5.95
2023-02-02T15:57:36.013Z,5.93
2023-02-02T16:00:34.112Z,5.69
2023-02-02T16:03:14.182Z,5.47
2023-02-02T16:05:49.433Z,5.83
2023-02-02T16:08:25.231Z,5.80
2023-02-02T16:11:06.692Z,5.50
2023-02-02T16:13:34.226Z,5.66
2023-02-02T16:16:05.564Z,5.81
2023-02-02T16:18:35.161Z,5.73
2023-02-02T16:21:10.024Z,5.39
2023-02-02T16:23:38.361Z,5.24
2023-02-02T16:26:07.253Z,5.72
2023-02-02T16:28:35.632Z,5.48
2023-02-02T16:31:03.544Z,5.18
2023-02-02T16:33:40.881Z,5.04
2023-02-02T16:36:26.771Z,5.77
2023-02-02T16:38:58.361Z,5.47
2023-02-02T16:41:36.657Z,7.56
2023-02-02T16:44:28.652Z,5.92
2023-02-02T16:46:56.546Z,6.01
2023-02-02T16:49:25.448Z,8.47
2023-02-02T16:52:25.084Z,6.86
2023-02-02T16:54:57.276Z,6.25
2023-02-02T16:57:34.495Z,5.95
2023-02-02T17:00:06.185Z,5.17
2023-02-02T17:02:36.707Z,4.97
2023-02-02T17:05:15.875Z,5.22
2023-02-02T17:07:49.918Z,5.13
2023-02-02T17:10:17.498Z,4.88
2023-02-02T17:12:46.557Z,4.89
2023-02-02T17:15:16.737Z,5.15
2023-02-02T17:17:48.147Z,5.07
2023-02-02T17:20:18.710Z,4.88
2023-02-02T17:22:52.408Z,4.75
2023-02-02T17:25:30.917Z,5.08
2023-02-02T17:28:06.557Z,5.05
2023-02-02T17:30:34.622Z,4.82
2023-02-02T17:33:06.061Z,4.72
2023-02-02T17:35:53.036Z,5.12
2023-02-02T17:38:25.588Z,5.03
2023-02-02T17:40:55.579Z,4.87
2023-02-02T17:43:23.663Z,4.74
2023-02-02T17:45:51.357Z,5.01
2023-02-02T17:48:19.333Z,4.80
2023-02-02T17:50:46.903Z,4.59
2023-02-02T17:53:17.066Z,4.60
2023-02-02T17:55:46.009Z,4.81
2023-02-02T17:58:14.741Z,4.79
2023-02-02T18:00:47.101Z,4.76
2023-02-02T18:03:17.947Z,4.76
2023-02-02T18:05:45.384Z,4.80
2023-02-02T18:08:15.849Z,4.98
2023-02-02T18:10:52.846Z,4.72
2023-02-02T18:13:26.979Z,4.59
2023-02-02T18:16:01.172Z,4.77
2023-02-02T18:18:31.238Z,4.64
2023-02-02T18:21:03.887Z,4.45
2023-02-02T18:23:34.112Z,4.55
2023-02-02T18:26:19.775Z,4.70
2023-02-02T18:28:47.600Z,4.63
2023-02-02T18:31:18.219Z,4.61
2023-02-02T18:33:47.374Z,4.80
2023-02-02T18:36:17.829Z,4.75
2023-02-02T18:38:46.105Z,4.42
2023-02-02T18:41:15.257Z,4.15
2023-02-02T18:43:45.623Z,4.24
2023-02-02T18:46:15.287Z,4.66
2023-02-02T18:48:43.208Z,4.37
2023-02-02T18:51:18.643Z,4.37
2023-02-02T18:53:46.962Z,4.34
2023-02-02T18:56:15.487Z,4.60
2023-02-02T18:58:43.451Z,4.52
2023-02-02T19:01:15.327Z,4.41
2023-02-02T19:03:53.366Z,4.45
2023-02-02T19:06:24.113Z,4.61
2023-02-02T19:08:54.618Z,4.47
2023-02-02T19:11:34.832Z,4.38
2023-02-02T19:14:19.544Z,4.28
2023-02-02T19:16:51.682Z,4.33
2023-02-02T19:19:26.446Z,4.39
2023-02-02T19:21:56.540Z,4.05
2023-02-02T19:24:31.366Z,4.13
2023-02-02T19:27:02.023Z,4.24
2023-02-02T19:29:35.088Z,4.05
2023-02-02T19:32:09.326Z,3.88
2023-02-02T19:34:39.016Z,3.79
2023-02-02T19:37:18.582Z,4.16
2023-02-02T19:39:46.448Z,3.97
2023-02-02T19:42:16.987Z,3.96
2023-02-02T19:44:54.035Z,3.95
2023-02-02T19:47:31.028Z,4.02
2023-02-02T19:50:11.904Z,4.16
2023-02-02T19:52:43.044Z,4.15
2023-02-02T19:55:27.462Z,3.99
2023-02-02T19:58:01.478Z,3.93
2023-02-02T20:00:31.362Z,3.86
2023-02-02T20:03:04.964Z,3.73
2023-02-02T20:05:44.016Z,3.78
2023-02-02T20:08:23.790Z,4.12
2023-02-02T20:10:58.030Z,3.95
2023-02-02T20:13:59.483Z,3.94
2023-02-02T20:16:40.817Z,4.08
2023-02-02T20:19:27.980Z,4.13
2023-02-02T20:22:02.698Z,3.86
2023-02-02T20:24:39.434Z,3.83
2023-02-02T20:27:23.425Z,3.78
2023-02-02T20:29:59.914Z,3.75
2023-02-02T20:32:38.160Z,3.74
2023-02-02T20:35:32.091Z,3.71
2023-02-02T20:37:59.850Z,3.77
2023-02-02T20:40:32.005Z,3.57
2023-02-02T20:43:01.922Z,3.56
2023-02-02T20:45:35.016Z,3.71
2023-02-02T20:48:05.454Z,3.57
2023-02-02T20:50:38.718Z,3.55
2023-02-02T20:53:06.569Z,3.20
2023-02-02T20:55:34.999Z,3.17
2023-02-02T20:58:03.290Z,3.19
2023-02-02T21:00:36.027Z,3.16
2023-02-02T21:03:06.031Z,3.37
2023-02-02T21:05:34.181Z,3.14
2023-02-02T21:08:09.890Z,3.20
2023-02-02T21:10:40.603Z,3.13
2023-02-02T21:13:08.011Z,3.11
2023-02-02T21:15:38.815Z,3.17
2023-02-02T21:18:09.533Z,3.18
2023-02-02T21:20:45.612Z,3.13
2023-02-02T21:23:15.616Z,3.26
2023-02-02T21:25:53.850Z,3.24
2023-02-02T21:28:27.523Z,3.10
2023-02-02T21:30:57.359Z,3.08
2023-02-02T21:33:24.673Z,3.13
2023-02-02T21:35:58.037Z,3.20
2023-02-02T21:38:25.995Z,3.09
2023-02-02T21:40:55.899Z,3.08
2023-02-02T21:43:32.962Z,3.06
2023-02-02T21:46:03.053Z,3.08
2023-02-02T21:48:36.174Z,3.17
2023-02-02T21:51:21.208Z,3.27
2023-02-02T21:53:48.616Z,3.15
2023-02-02T21:56:36.650Z,3.42
2023-02-02T21:59:18.853Z,3.57
2023-02-02T22:01:47.635Z,3.55
2023-02-02T22:04:19.350Z,3.59
2023-02-02T22:06:51.811Z,3.67
2023-02-02T22:09:28.774Z,3.60
2023-02-02T22:12:03.230Z,3.70
2023-02-02T22:14:36.409Z,3.63
2023-02-02T22:17:16.600Z,3.72
2023-02-02T22:19:44.356Z,3.65
2023-02-02T22:22:20.227Z,3.77
2023-02-02T22:25:12.556Z,3.70
2023-02-02T22:27:50.973Z,3.76
2023-02-02T22:30:29.489Z,3.85
2023-02-02T22:32:57.338Z,3.72
2023-02-02T22:35:24.977Z,3.67
2023-02-02T22:37:52.318Z,3.90
2023-02-02T22:40:21.100Z,3.64
2023-02-02T22:42:53.446Z,3.72
2023-02-02T22:45:21.050Z,3.69
2023-02-02T22:47:51.415Z,3.68
2023-02-02T22:50:21.056Z,3.78
2023-02-02T22:52:48.630Z,3.66
2023-02-02T22:55:16.703Z,3.72
2023-02-02T22:57:44.220Z,3.78
2023-02-02T23:00:15.123Z,3.83
2023-02-02T23:02:43.400Z,3.64
2023-02-02T23:05:12.893Z,3.72
2023-02-02T23:07:43.520Z,3.80
2023-02-02T23:10:20.176Z,3.77
2023-02-02T23:12:48.178Z,3.79
2023-02-02T23:15:16.433Z,3.83
2023-02-02T23:17:46.509Z,4.02
2023-02-02T23:20:15.116Z,4.03
2023-02-02T23:22:42.644Z,4.18
2023-02-02T23:25:12.272Z,4.18
2023-02-02T23:27:40.042Z,3.92
2023-02-02T23:30:10.080Z,3.85
2023-02-02T23:32:37.308Z,3.83
2023-02-02T23:35:05.848Z,3.69
2023-02-02T23:37:35.318Z,3.85
2023-02-02T23:40:04.032Z,3.86
2023-02-02T23:42:31.320Z,3.75
2023-02-02T23:45:16.766Z,3.91
2023-02-02T23:47:47.399Z,3.98
2023-02-02T23:50:15.079Z,3.91
2023-02-02T23:52:45.547Z,3.94
2023-02-02T23:55:14.722Z,3.79
2023-02-02T23:57:42.248Z,3.94
